Station Historical Data
Daily Summary for October 31, 2017 Units:  Metric    English   Both
« Previous Day
Next Day »
Daily Weekly Monthly Yearly Custom
  High: Low: Average:
Temperature: 6.3 °C 1.9 °C 4.9 °C
Dew Point: 2.3 °C -2.6 °C 0 °C
Humidity: 89% 56% 71%
Wind Speed: 29km/h 0km/h 7.4km/h
Wind Gust: 35.4km/h - -
Wind- - WSW
Pressure: 1022.6 hPa 1006.7 hPa -
Precipitation: 0 mm    
Historical Graphs
 
 
Tabular Data for October 31, 2017
Time Temperature Dew Point Pressure Wind Wind Speed Wind Gust Humidity Rainfall Rate (Hourly)
00:04 5.9 °C 1.4 °C 1006.7 hPa WSW 1.6 km/h 8 km/h 73% 0 mm
00:09 5.9 °C 1.4 °C 1006.7 hPa West 3.2 km/h 22.5 km/h 73% 0 mm
00:14 6 °C 1.5 °C 1006.7 hPa West 4.8 km/h 12.9 km/h 73% 0 mm
00:19 6.1 °C 1.4 °C 1006.7 hPa SW 11.3 km/h 14.5 km/h 72% 0 mm
00:24 6.1 °C 1.2 °C 1006.7 hPa WSW 6.4 km/h 24.1 km/h 71% 0 mm
00:29 6.2 °C 1.1 °C 1007 hPa WNW 17.7 km/h 19.3 km/h 70% 0 mm
00:34 6.2 °C 1.2 °C 1007 hPa WSW 12.9 km/h 20.9 km/h 70% 0 mm
00:44 6.2 °C 0.7 °C 1007 hPa West 9.7 km/h 24.1 km/h 68% 0 mm
00:49 6.2 °C 0.7 °C 1006.7 hPa West 9.7 km/h 25.7 km/h 68% 0 mm
00:54 6.3 °C 0.8 °C 1007 hPa West 9.7 km/h 25.7 km/h 68% 0 mm
00:59 6.3 °C 1.1 °C 1007 hPa West 9.7 km/h 24.1 km/h 69% 0 mm
01:09 6.2 °C 2.1 °C 1007.3 hPa SW 8 km/h 27.4 km/h 75% 0 mm
01:14 5.8 °C 2.3 °C 1007.3 hPa SW 9.7 km/h 27.4 km/h 78% 0 mm
01:19 5.4 °C 2.2 °C 1007.7 hPa SW 4.8 km/h 9.7 km/h 80% 0 mm
01:24 5.2 °C 2.2 °C 1007.7 hPa West 6.4 km/h 11.3 km/h 81% 0 mm
01:29 5.1 °C 2.3 °C 1007.7 hPa West 6.4 km/h 27.4 km/h 82% 0 mm
01:34 5.2 °C 2 °C 1007.7 hPa West 16.1 km/h 20.9 km/h 80% 0 mm
01:39 5.5 °C 1.2 °C 1007.7 hPa NW 17.7 km/h 24.1 km/h 74% 0 mm
01:44 5.8 °C 1.1 °C 1008 hPa NW 6.4 km/h 17.7 km/h 72% 0 mm
01:49 5.8 °C 0.8 °C 1007.7 hPa West 8 km/h 19.3 km/h 70% 0 mm
01:54 5.9 °C 0.7 °C 1008 hPa West 9.7 km/h 19.3 km/h 69% 0 mm
01:59 6 °C 0.6 °C 1008 hPa West 9.7 km/h 24.1 km/h 68% 0 mm
02:04 6 °C 0.6 °C 1008 hPa West 12.9 km/h 35.4 km/h 68% 0 mm
02:09 6 °C 0.6 °C 1008 hPa West 12.9 km/h 35.4 km/h 68% 0 mm
02:14 5.9 °C 0.5 °C 1008.4 hPa West 11.3 km/h 25.7 km/h 68% 0 mm
02:19 5.8 °C 0.6 °C 1008.4 hPa WNW 6.4 km/h 19.3 km/h 69% 0 mm
02:24 5.8 °C 0.3 °C 1008.4 hPa WSW 8 km/h 22.5 km/h 68% 0 mm
02:29 5.7 °C 0.2 °C 1008.4 hPa NW 11.3 km/h 22.5 km/h 68% 0 mm
02:34 5.7 °C 0.2 °C 1008.7 hPa WNW 6.4 km/h 17.7 km/h 68% 0 mm
02:39 5.7 °C 0.2 °C 1008.7 hPa WSW 6.4 km/h 16.1 km/h 68% 0 mm
02:44 5.6 °C 0.2 °C 1008.7 hPa WNW 8 km/h 20.9 km/h 68% 0 mm
02:49 5.6 °C -0.1 °C 1008.7 hPa West 8 km/h 17.7 km/h 67% 0 mm
02:54 5.6 °C -0.1 °C 1008.7 hPa West 8 km/h 19.3 km/h 67% 0 mm
02:59 5.6 °C -0.2 °C 1008.7 hPa West 9.7 km/h 22.5 km/h 66% 0 mm
03:04 5.6 °C -0.2 °C 1008.7 hPa West 9.7 km/h 22.5 km/h 66% 0 mm
03:09 5.6 °C -0.2 °C 1008.7 hPa West 8 km/h 20.9 km/h 66% 0 mm
03:14 5.7 °C -0.2 °C 1009 hPa West 8 km/h 24.1 km/h 66% 0 mm
03:19 5.7 °C -0.4 °C 1009 hPa West 9.7 km/h 24.1 km/h 65% 0 mm
03:24 5.7 °C -0.4 °C 1009 hPa West 8 km/h 22.5 km/h 65% 0 mm
03:29 5.8 °C -0.5 °C 1009 hPa WNW 9.7 km/h 22.5 km/h 64% 0 mm
03:34 5.8 °C -0.5 °C 1009 hPa WSW 3.2 km/h 19.3 km/h 64% 0 mm
03:39 5.8 °C -0.7 °C 1009 hPa West 14.5 km/h 19.3 km/h 63% 0 mm
03:44 5.8 °C -0.5 °C 1009 hPa West 6.4 km/h 16.1 km/h 64% 0 mm
03:49 5.7 °C -0.6 °C 1009 hPa West 6.4 km/h 16.1 km/h 64% 0 mm
03:54 5.7 °C -0.8 °C 1009.4 hPa SW 9.7 km/h 20.9 km/h 63% 0 mm
03:59 5.7 °C -0.8 °C 1009.4 hPa West 8 km/h 20.9 km/h 63% 0 mm
04:04 5.7 °C -0.8 °C 1009.4 hPa West 8 km/h 19.3 km/h 63% 0 mm
04:09 5.6 °C -0.9 °C 1009.4 hPa West 8 km/h 19.3 km/h 63% 0 mm
04:14 5.6 °C -0.9 °C 1009.7 hPa WSW 6.4 km/h 17.7 km/h 63% 0 mm
04:19 5.6 °C -0.9 °C 1009.7 hPa WSW 6.4 km/h 16.1 km/h 63% 0 mm
04:24 5.6 °C -0.9 °C 1009.7 hPa WSW 6.4 km/h 16.1 km/h 63% 0 mm
04:29 5.6 °C -0.9 °C 1009.7 hPa WSW 6.4 km/h 16.1 km/h 63% 0 mm
04:34 5.7 °C -0.8 °C 1010 hPa WSW 3.2 km/h 12.9 km/h 63% 0 mm
04:39 5.6 °C -1.1 °C 1010 hPa WSW 6.4 km/h 17.7 km/h 62% 0 mm
04:44 5.6 °C -1.1 °C 1010 hPa SW 6.4 km/h 16.1 km/h 62% 0 mm
04:49 5.7 °C -1.1 °C 1010 hPa West 12.9 km/h 17.7 km/h 62% 0 mm
04:54 5.7 °C -1.1 °C 1010 hPa WSW 4.8 km/h 14.5 km/h 62% 0 mm
04:59 5.7 °C -1.1 °C 1010 hPa WSW 6.4 km/h 16.1 km/h 62% 0 mm
05:04 5.7 °C -1.1 °C 1010 hPa WSW 3.2 km/h 16.1 km/h 62% 0 mm
05:09 5.6 °C -1.3 °C 1010 hPa West 8 km/h 20.9 km/h 61% 0 mm
05:14 5.7 °C -1.3 °C 1010 hPa West 9.7 km/h 20.9 km/h 61% 0 mm
05:19 5.7 °C -1.3 °C 1010 hPa West 8 km/h 19.3 km/h 61% 0 mm
05:24 5.7 °C -1.1 °C 1010.4 hPa WSW 12.9 km/h 17.7 km/h 62% 0 mm
05:29 5.7 °C -1.1 °C 1010.4 hPa West 6.4 km/h 17.7 km/h 62% 0 mm
05:34 5.7 °C -1.1 °C 1010.4 hPa West 8 km/h 17.7 km/h 62% 0 mm
05:39 5.7 °C -1.1 °C 1010.4 hPa West 4.8 km/h 16.1 km/h 62% 0 mm
05:44 5.7 °C -0.8 °C 1010.4 hPa WNW 8 km/h 12.9 km/h 63% 0 mm
05:49 5.8 °C -0.9 °C 1010.4 hPa Calm   14.5 km/h 62% 0 mm
05:59 5.8 °C -0.9 °C 1010.4 hPa WSW 6.4 km/h 20.9 km/h 62% 0 mm
06:04 5.8 °C -0.9 °C 1010.4 hPa WSW 9.7 km/h 14.5 km/h 62% 0 mm
06:09 5.8 °C -0.9 °C 1010.4 hPa West 4.8 km/h 14.5 km/h 62% 0 mm
06:14 5.8 °C -0.9 °C 1010.4 hPa West 6.4 km/h 16.1 km/h 62% 0 mm
06:19 5.8 °C -1.1 °C 1010.4 hPa West 6.4 km/h 16.1 km/h 61% 0 mm
06:24 5.9 °C -1.3 °C 1010.7 hPa West 8 km/h 19.3 km/h 60% 0 mm
06:29 6 °C -1.2 °C 1010.7 hPa WSW 11.3 km/h 27.4 km/h 60% 0 mm
06:34 5.9 °C -1.2 °C 1010.7 hPa West 3.2 km/h 16.1 km/h 60% 0 mm
06:39 5.9 °C -1 °C 1011.1 hPa West 9.7 km/h 20.9 km/h 61% 0 mm
06:44 5.9 °C -1.1 °C 1011.1 hPa West 16.1 km/h 24.1 km/h 61% 0 mm
06:49 5.8 °C -1.3 °C 1011.1 hPa WNW 8 km/h 22.5 km/h 60% 0 mm
06:54 5.8 °C -1.1 °C 1011.1 hPa West 11.3 km/h 17.7 km/h 61% 0 mm
06:59 5.8 °C -1.1 °C 1011.1 hPa SW 12.9 km/h 20.9 km/h 61% 0 mm
07:04 5.8 °C -1.1 °C 1011.4 hPa West 9.7 km/h 14.5 km/h 61% 0 mm
07:09 5.8 °C -1.3 °C 1011.4 hPa West 9.7 km/h 29 km/h 60% 0 mm
07:14 5.9 °C -1.1 °C 1011.4 hPa WSW 8 km/h 19.3 km/h 61% 0 mm
07:19 5.8 °C -0.9 °C 1011.4 hPa WSW 9.7 km/h 19.3 km/h 62% 0 mm
07:24 5.8 °C -1.1 °C 1011.4 hPa WSW 8 km/h 19.3 km/h 61% 0 mm
07:29 5.9 °C -0.8 °C 1011.4 hPa WSW 8 km/h 20.9 km/h 62% 0 mm
07:34 5.8 °C -1.3 °C 1011.7 hPa WSW 8 km/h 20.9 km/h 60% 0 mm
07:39 5.8 °C -1.3 °C 1011.7 hPa WSW 8 km/h 17.7 km/h 60% 0 mm
07:44 5.9 °C -1.5 °C 1011.4 hPa WSW 8 km/h 19.3 km/h 59% 0 mm
07:49 6 °C -1.7 °C 1011.7 hPa SW 8 km/h 19.3 km/h 58% 0 mm
07:54 6 °C -1.7 °C 1011.7 hPa WSW 3.2 km/h 25.7 km/h 58% 0 mm
07:59 6.1 °C -1.1 °C 1011.7 hPa SSW 9.7 km/h 27.4 km/h 60% 0 mm
08:04 5.9 °C 0.7 °C 1012.1 hPa SW 9.7 km/h 20.9 km/h 69% 0 mm
08:09 5.6 °C 0.9 °C 1012.1 hPa SSE 9.7 km/h 20.9 km/h 72% 0 mm
08:14 4.9 °C 0.7 °C 1012.1 hPa South 9.7 km/h 25.7 km/h 74% 0 mm
08:19 4.4 °C 0.5 °C 1012.4 hPa SSW 9.7 km/h 19.3 km/h 76% 0 mm
08:24 3.9 °C 0.6 °C 1012.4 hPa SSW 6.4 km/h 11.3 km/h 79% 0 mm
08:29 3.8 °C 0.9 °C 1012.4 hPa SSW 8 km/h 30.6 km/h 81% 0 mm
08:34 3.8 °C 1 °C 1012.4 hPa SSW 9.7 km/h 30.6 km/h 82% 0 mm
08:39 3.6 °C 0.8 °C 1012.8 hPa SSW 8 km/h 17.7 km/h 82% 0 mm
08:44 3.4 °C 0.8 °C 1012.8 hPa SSW 8 km/h 22.5 km/h 83% 0 mm
08:49 3.4 °C 0.8 °C 1012.8 hPa SSW 9.7 km/h 24.1 km/h 83% 0 mm
08:54 3.6 °C 1.1 °C 1012.8 hPa WSW 14.5 km/h 19.3 km/h 84% 0 mm
08:59 3.7 °C 1.2 °C 1013.1 hPa SW 8 km/h 19.3 km/h 84% 0 mm
09:04 3.8 °C 1.3 °C 1013.1 hPa SW 8 km/h 17.7 km/h 84% 0 mm
09:09 3.8 °C 1.3 °C 1013.1 hPa SW 9.7 km/h 16.1 km/h 84% 0 mm
09:14 3.9 °C 1.7 °C 1013.1 hPa South 9.7 km/h 25.7 km/h 85% 0 mm
09:19 4.1 °C 1.8 °C 1013.1 hPa SW 9.7 km/h 19.3 km/h 85% 0 mm
09:24 4.3 °C 2 °C 1013.4 hPa SW 16.1 km/h 24.1 km/h 85% 0 mm
09:29 4.3 °C 1.8 °C 1013.4 hPa SSW 4.8 km/h 20.9 km/h 84% 0 mm
09:34 4.2 °C 1.7 °C 1013.8 hPa SSW 9.7 km/h 20.9 km/h 84% 0 mm
09:39 4.2 °C 1.7 °C 1013.8 hPa SSW 8 km/h 19.3 km/h 84% 0 mm
09:44 4.1 °C 1.7 °C 1014.1 hPa SSW 8 km/h 22.5 km/h 84% 0 mm
09:49 4 °C 1.6 °C 1014.1 hPa SSW 11.3 km/h 30.6 km/h 84% 0 mm
09:54 3.7 °C 1.2 °C 1014.1 hPa SSW 20.9 km/h 24.1 km/h 84% 0.25 mm
09:59 3.4 °C 1.2 °C 1014.4 hPa WSW 8 km/h 25.7 km/h 85% 0.51 mm
10:04 3.1 °C 0.6 °C 1014.1 hPa SSW 3.2 km/h 19.3 km/h 84% 1.27 mm
10:09 2.7 °C 0.4 °C 1014.4 hPa SSW 8 km/h 19.3 km/h 85% 1.52 mm
10:14 2.6 °C 0.5 °C 1014.8 hPa SW 4.8 km/h 17.7 km/h 86% 1.78 mm
10:19 2.4 °C 0.3 °C 1014.8 hPa SW 12.9 km/h 20.9 km/h 86% 1.78 mm
10:24 2.2 °C 0.2 °C 1014.8 hPa SW 3.2 km/h 20.9 km/h 87% 1.78 mm
10:29 2 °C 0.1 °C 1014.8 hPa West 4.8 km/h 12.9 km/h 87% 2.03 mm
10:34 1.9 °C 0 °C 1014.8 hPa Calm   9.7 km/h 87% 2.03 mm
10:39 2 °C 0.2 °C 1014.8 hPa SW 6.4 km/h 17.7 km/h 88% 2.29 mm
10:44 2.3 °C 0.5 °C 1014.8 hPa SSW 8 km/h 27.4 km/h 88% 2.54 mm
10:49 2.6 °C 1 °C 1014.8 hPa SSW 9.7 km/h 27.4 km/h 89% 2.54 mm
10:54 2.9 °C 1.3 °C 1015.1 hPa SSW 9.7 km/h 24.1 km/h 89% 2.54 mm
10:59 2.9 °C 1.3 °C 1015.1 hPa SSW 11.3 km/h 30.6 km/h 89% 2.54 mm
11:04 2.9 °C 1.1 °C 1015.1 hPa SSW 11.3 km/h 30.6 km/h 88% 2.03 mm
11:09 2.9 °C 1.3 °C 1015.5 hPa SW 8 km/h 22.5 km/h 89% 2.03 mm
11:14 2.8 °C 1.2 °C 1015.5 hPa SSW 9.7 km/h 22.5 km/h 89% 1.78 mm
11:19 2.8 °C 1.2 °C 1015.5 hPa South 3.2 km/h 19.3 km/h 89% 2.03 mm
11:24 2.9 °C 1.3 °C 1015.8 hPa SSW 9.7 km/h 17.7 km/h 89% 2.29 mm
11:29 2.9 °C 1.3 °C 1015.8 hPa SSW 3.2 km/h 19.3 km/h 89% 2.03 mm
11:34 2.9 °C 1.3 °C 1015.8 hPa WSW 6.4 km/h 17.7 km/h 89% 2.03 mm
11:39 2.9 °C 1.3 °C 1015.8 hPa WSW 11.3 km/h 25.7 km/h 89% 1.78 mm
11:44 2.8 °C 1.2 °C 1015.8 hPa South 11.3 km/h 24.1 km/h 89% 1.78 mm
11:49 2.9 °C 1.3 °C 1015.8 hPa SSW 11.3 km/h 35.4 km/h 89% 1.78 mm
11:54 3 °C 1.4 °C 1016.1 hPa SSW 11.3 km/h 35.4 km/h 89% 1.52 mm
11:59 3.1 °C 1.4 °C 1016.1 hPa SSW 9.7 km/h 27.4 km/h 89% 1.27 mm
12:04 3 °C 1.2 °C 1016.1 hPa SSW 9.7 km/h 27.4 km/h 88% 1.02 mm
12:09 3.1 °C 1.4 °C 1016.1 hPa SSW 9.7 km/h 24.1 km/h 89% 1.02 mm
12:14 3 °C 1.4 °C 1016.1 hPa SSW 14.5 km/h 24.1 km/h 89% 1.02 mm
12:19 3.1 °C 1.4 °C 1016.1 hPa SSW 11.3 km/h 24.1 km/h 89% 0.76 mm
12:24 3.1 °C 1.5 °C 1016.1 hPa SSW 11.3 km/h 24.1 km/h 89% 0.76 mm
12:29 3.2 °C 1.6 °C 1016.1 hPa SW 8 km/h 24.1 km/h 89% 0.76 mm
12:34 3.3 °C 1.6 °C 1016.5 hPa WSW 12.9 km/h 25.7 km/h 89% 0.76 mm
12:39 3.2 °C 1.6 °C 1016.5 hPa South 6.4 km/h 22.5 km/h 89% 1.02 mm
12:44 3.1 °C 1.4 °C 1016.1 hPa SSW 19.3 km/h 30.6 km/h 89% 0.76 mm
12:49 3 °C 1.4 °C 1016.1 hPa SSW 3.2 km/h 27.4 km/h 89% 0.76 mm
12:54 3 °C 1.4 °C 1016.5 hPa SSW 8 km/h 27.4 km/h 89% 0.76 mm
12:59 3.1 °C 1.5 °C 1016.1 hPa SW 6.4 km/h 19.3 km/h 89% 1.02 mm
13:04 3.2 °C 1.6 °C 1016.1 hPa SSW 8 km/h 19.3 km/h 89% 1.02 mm
13:09 3.3 °C 1.6 °C 1016.1 hPa SSW 8 km/h 17.7 km/h 89% 0.76 mm
13:14 3.3 °C 1.7 °C 1016.1 hPa SSE 14.5 km/h 16.1 km/h 89% 0.76 mm
13:19 3.3 °C 1.7 °C 1016.1 hPa WSW 12.9 km/h 22.5 km/h 89% 0.76 mm
13:24 3.3 °C 1.7 °C 1016.1 hPa SSW 11.3 km/h 20.9 km/h 89% 0.51 mm
13:29 3.3 °C 1.7 °C 1016.5 hPa SSW 8 km/h 20.9 km/h 89% 0.51 mm
13:34 3.4 °C 1.8 °C 1016.5 hPa SSW 3.2 km/h 9.7 km/h 89% 0.51 mm
13:39 3.6 °C 1.9 °C 1016.5 hPa WSW 4.8 km/h 6.4 km/h 89% 0.25 mm
13:44 3.8 °C 2.2 °C 1016.5 hPa Calm   4.8 km/h 89% 0.25 mm
13:49 4.2 °C 2.2 °C 1016.5 hPa WNW 6.4 km/h 16.1 km/h 87% 0.25 mm
13:54 4.6 °C 1.9 °C 1016.8 hPa West 14.5 km/h 24.1 km/h 83% 0.25 mm
13:59 5.1 °C 1.7 °C 1016.8 hPa West 11.3 km/h 25.7 km/h 79% 0 mm
14:04 5.3 °C 1.2 °C 1016.8 hPa West 11.3 km/h 25.7 km/h 75% 0 mm
14:09 5.4 °C 0.7 °C 1016.8 hPa West 12.9 km/h 32.2 km/h 72% 0 mm
14:14 5.4 °C 0.8 °C 1017.2 hPa West 11.3 km/h 32.2 km/h 72% 0 mm
14:19 5.4 °C 0.4 °C 1017.2 hPa West 9.7 km/h 22.5 km/h 70% 0 mm
14:24 5.4 °C 0.2 °C 1017.5 hPa WNW 14.5 km/h 27.4 km/h 69% 0 mm
14:29 5.4 °C 0.2 °C 1017.5 hPa West 8 km/h 27.4 km/h 69% 0 mm
14:34 5.4 °C -0.3 °C 1017.5 hPa West 11.3 km/h 27.4 km/h 67% 0 mm
14:39 5.4 °C -0.3 °C 1017.5 hPa West 11.3 km/h 24.1 km/h 67% 0 mm
14:44 5.5 °C -0.3 °C 1017.5 hPa West 11.3 km/h 24.1 km/h 66% 0 mm
14:49 5.7 °C -0.2 °C 1017.5 hPa West 11.3 km/h 24.1 km/h 66% 0 mm
14:54 5.7 °C -0.4 °C 1017.5 hPa West 9.7 km/h 20.9 km/h 65% 0 mm
14:59 5.6 °C -0.7 °C 1017.5 hPa WNW 29 km/h 29 km/h 64% 0 mm
15:04 5.6 °C -1.2 °C 1017.8 hPa WSW 17.7 km/h 33.8 km/h 62% 0 mm
15:09 5.4 °C -1.3 °C 1017.8 hPa West 16.1 km/h 33.8 km/h 62% 0 mm
15:14 5.4 °C -1.1 °C 1017.8 hPa West 12.9 km/h 25.7 km/h 63% 0 mm
15:19 5.4 °C -1.1 °C 1018.2 hPa West 12.9 km/h 24.1 km/h 63% 0 mm
15:24 5.5 °C -1 °C 1018.2 hPa West 4.8 km/h 20.9 km/h 63% 0 mm
15:29 5.5 °C -1 °C 1018.2 hPa WNW 11.3 km/h 32.2 km/h 63% 0 mm
15:34 5.4 °C -1.1 °C 1018.5 hPa WSW 4.8 km/h 24.1 km/h 63% 0 mm
15:39 5.5 °C -0.6 °C 1018.5 hPa West 6.4 km/h 24.1 km/h 65% 0 mm
15:44 5.4 °C -0.8 °C 1018.5 hPa WSW 6.4 km/h 20.9 km/h 64% 0 mm
15:49 5.5 °C -0.8 °C 1018.5 hPa West 8 km/h 20.9 km/h 64% 0 mm
15:54 5.5 °C -0.8 °C 1018.5 hPa West 8 km/h 14.5 km/h 64% 0 mm
15:59 5.5 °C -0.8 °C 1018.5 hPa SW 8 km/h 16.1 km/h 64% 0 mm
16:04 5.6 °C -0.7 °C 1018.5 hPa West 1.6 km/h 12.9 km/h 64% 0 mm
16:09 5.6 °C -0.7 °C 1018.8 hPa WSW 9.7 km/h 14.5 km/h 64% 0 mm
16:14 5.6 °C -1.2 °C 1018.8 hPa WSW 8 km/h 22.5 km/h 62% 0 mm
16:19 5.6 °C -1.1 °C 1018.8 hPa WSW 9.7 km/h 22.5 km/h 62% 0 mm
16:24 5.6 °C -0.9 °C 1018.8 hPa West 3.2 km/h 14.5 km/h 63% 0 mm
16:29 5.6 °C -0.7 °C 1018.8 hPa WSW 1.6 km/h 11.3 km/h 64% 0 mm
16:34 5.6 °C -0.7 °C 1018.8 hPa WSW 4.8 km/h 9.7 km/h 64% 0 mm
16:39 5.6 °C -0.9 °C 1018.8 hPa SSW 11.3 km/h 17.7 km/h 63% 0 mm
16:44 5.6 °C -0.9 °C 1018.8 hPa WSW 8 km/h 14.5 km/h 63% 0 mm
16:49 5.6 °C -1.1 °C 1018.8 hPa WSW 6.4 km/h 14.5 km/h 62% 0 mm
16:54 5.7 °C -1.3 °C 1018.8 hPa WSW 6.4 km/h 16.1 km/h 61% 0 mm
16:59 5.7 °C -1.3 °C 1018.8 hPa WSW 8 km/h 16.1 km/h 61% 0 mm
17:04 5.7 °C -1.3 °C 1018.8 hPa WSW 6.4 km/h 16.1 km/h 61% 0 mm
17:09 5.7 °C -1.2 °C 1018.8 hPa WSW 4.8 km/h 11.3 km/h 61% 0 mm
17:14 5.7 °C -1.2 °C 1018.8 hPa WSW 8 km/h 12.9 km/h 61% 0 mm
17:19 5.7 °C -1.1 °C 1018.8 hPa SW 6.4 km/h 12.9 km/h 62% 0 mm
17:24 5.7 °C -1.3 °C 1019.2 hPa SW 9.7 km/h 17.7 km/h 61% 0 mm
17:29 5.6 °C -1.3 °C 1019.2 hPa SW 4.8 km/h 14.5 km/h 61% 0 mm
17:34 5.6 °C -1.6 °C 1019.2 hPa WSW 4.8 km/h 16.1 km/h 60% 0 mm
17:39 5.6 °C -1.3 °C 1019.2 hPa West 3.2 km/h 12.9 km/h 61% 0 mm
17:44 5.6 °C -1.6 °C 1019.2 hPa WSW 1.6 km/h 14.5 km/h 60% 0 mm
17:49 5.6 °C -1.6 °C 1019.2 hPa WSW 6.4 km/h 14.5 km/h 60% 0 mm
17:54 5.6 °C -1.8 °C 1019.2 hPa WSW 6.4 km/h 14.5 km/h 59% 0 mm
17:59 5.6 °C -1.8 °C 1019.5 hPa West 11.3 km/h 14.5 km/h 59% 0 mm
18:04 5.6 °C -2.1 °C 1019.5 hPa WSW 3.2 km/h 12.9 km/h 58% 0 mm
18:09 5.6 °C -2.1 °C 1019.5 hPa West 8 km/h 19.3 km/h 58% 0 mm
18:14 5.6 °C -2.1 °C 1019.5 hPa WSW 8 km/h 14.5 km/h 58% 0 mm
18:19 5.6 °C -2.6 °C 1019.5 hPa SW 14.5 km/h 16.1 km/h 56% 0 mm
18:24 5.7 °C -2.4 °C 1019.9 hPa WSW 8 km/h 17.7 km/h 56% 0 mm
18:29 5.7 °C -2.2 °C 1019.9 hPa WSW 6.4 km/h 17.7 km/h 57% 0 mm
18:34 5.6 °C -2.3 °C 1019.9 hPa West 4.8 km/h 14.5 km/h 57% 0 mm
18:39 5.6 °C -2.1 °C 1019.9 hPa SW 4.8 km/h 9.7 km/h 58% 0 mm
18:44 5.5 °C -1.9 °C 1019.9 hPa SSW 1.6 km/h 8 km/h 59% 0 mm
18:49 5.2 °C -0.2 °C 1019.9 hPa Calm   6.4 km/h 68% 0 mm
18:54 4.8 °C 0.2 °C 1019.9 hPa South 1.6 km/h 8 km/h 72% 0 mm
18:59 4.5 °C 0.3 °C 1019.9 hPa South 1.6 km/h 8 km/h 74% 0 mm
19:04 4.4 °C 0.7 °C 1020.2 hPa South 3.2 km/h 9.7 km/h 77% 0 mm
19:09 4.3 °C 0.8 °C 1020.2 hPa SSW 3.2 km/h 6.4 km/h 78% 0 mm
19:14 4.2 °C 0.7 °C 1020.2 hPa SSW 3.2 km/h 8 km/h 78% 0 mm
19:19 4.2 °C 0.7 °C 1020.2 hPa Calm   4.8 km/h 78% 0 mm
19:24 4.2 °C 0.7 °C 1020.5 hPa South 3.2 km/h 6.4 km/h 78% 0 mm
19:29 4.2 °C 0.7 °C 1020.5 hPa South 1.6 km/h 6.4 km/h 78% 0 mm
19:34 4.2 °C 0.4 °C 1020.5 hPa Calm   4.8 km/h 76% 0 mm
19:39 4.3 °C 0.4 °C 1020.5 hPa Calm   1.6 km/h 76% 0 mm
19:44 4.3 °C 0.1 °C 1020.5 hPa Calm     74% 0 mm
19:49 4.4 °C -0.3 °C 1020.5 hPa Calm     71% 0 mm
19:54 4.5 °C -0.1 °C 1020.5 hPa Calm     72% 0 mm
19:59 4.5 °C -0.1 °C 1020.5 hPa South 3.2 km/h 6.4 km/h 72% 0 mm
20:04 4.5 °C -0.1 °C 1020.5 hPa South 1.6 km/h 6.4 km/h 72% 0 mm
20:09 4.6 °C 0.3 °C 1020.5 hPa SSW 1.6 km/h 6.4 km/h 74% 0 mm
20:14 4.6 °C 0.3 °C 1020.5 hPa Calm   6.4 km/h 74% 0 mm
20:19 4.6 °C 0.3 °C 1020.5 hPa SSW 1.6 km/h 4.8 km/h 74% 0 mm
20:24 4.6 °C 0.2 °C 1020.9 hPa Calm   4.8 km/h 73% 0 mm
20:29 4.7 °C 0.2 °C 1020.9 hPa SW 1.6 km/h 3.2 km/h 73% 0 mm
20:34 4.7 °C 0.3 °C 1020.9 hPa SW 1.6 km/h 3.2 km/h 73% 0 mm
20:39 4.7 °C 0.4 °C 1020.9 hPa SSW 1.6 km/h 4.8 km/h 74% 0 mm
20:44 4.7 °C 0.2 °C 1020.9 hPa SSW 1.6 km/h 8 km/h 73% 0 mm
20:49 4.8 °C 0.6 °C 1021.2 hPa SSW 3.2 km/h 8 km/h 74% 0 mm
20:54 4.7 °C 0.3 °C 1021.2 hPa SSW 3.2 km/h 8 km/h 73% 0 mm
20:59 4.8 °C -0.2 °C 1021.2 hPa Calm   8 km/h 70% 0 mm
21:04 4.8 °C -0.4 °C 1021.2 hPa Calm   6.4 km/h 69% 0 mm
21:09 4.8 °C -0.4 °C 1021.2 hPa SW 1.6 km/h 8 km/h 69% 0 mm
21:14 4.8 °C -0.2 °C 1021.2 hPa SSW 1.6 km/h 8 km/h 70% 0 mm
21:19 4.8 °C 0.2 °C 1021.6 hPa SW 4.8 km/h 6.4 km/h 72% 0 mm
21:24 4.8 °C 0.3 °C 1021.6 hPa Calm   6.4 km/h 73% 0 mm
21:29 4.8 °C 0.3 °C 1021.6 hPa SW 1.6 km/h 4.8 km/h 73% 0 mm
21:34 4.7 °C 0.2 °C 1021.6 hPa South 1.6 km/h 6.4 km/h 73% 0 mm
21:39 4.6 °C 0.4 °C 1021.6 hPa SSW 3.2 km/h 6.4 km/h 74% 0 mm
21:44 4.6 °C 0 °C 1021.6 hPa SSW 3.2 km/h 8 km/h 72% 0 mm
21:49 4.7 °C 0.1 °C 1021.6 hPa SW 3.2 km/h 8 km/h 72% 0 mm
21:54 4.7 °C 0.1 °C 1021.6 hPa SW 1.6 km/h 6.4 km/h 72% 0 mm
21:59 4.7 °C 0.1 °C 1021.6 hPa SSW 3.2 km/h 9.7 km/h 72% 0 mm
22:04 4.6 °C -0.2 °C 1021.6 hPa SSW 6.4 km/h 9.7 km/h 71% 0 mm
22:09 4.6 °C -0.2 °C 1021.9 hPa South 6.4 km/h 12.9 km/h 71% 0 mm
22:14 4.7 °C -0.3 °C 1021.9 hPa SSW 4.8 km/h 12.9 km/h 70% 0 mm
22:19 4.7 °C -0.3 °C 1021.9 hPa SSW 4.8 km/h 12.9 km/h 70% 0 mm
22:24 4.7 °C -0.3 °C 1021.9 hPa SSW 14.5 km/h 14.5 km/h 70% 0 mm
22:29 4.7 °C -0.6 °C 1021.9 hPa SW 4.8 km/h 16.1 km/h 69% 0 mm
22:34 4.6 °C -0.6 °C 1022.2 hPa SSW 8 km/h 20.9 km/h 69% 0 mm
22:39 4.6 °C -0.6 °C 1022.2 hPa SSW 3.2 km/h 12.9 km/h 69% 0 mm
22:44 4.6 °C -0.8 °C 1021.9 hPa SSW 6.4 km/h 14.5 km/h 68% 0 mm
22:49 4.5 °C -0.7 °C 1022.2 hPa South 4.8 km/h 14.5 km/h 69% 0 mm
22:54 4.4 °C -0.8 °C 1021.9 hPa SSW 4.8 km/h 12.9 km/h 69% 0 mm
22:59 4.4 °C -0.8 °C 1021.9 hPa SSW 4.8 km/h 11.3 km/h 69% 0 mm
23:04 4.5 °C -0.9 °C 1021.9 hPa SSW 4.8 km/h 11.3 km/h 68% 0 mm
23:09 4.5 °C -0.9 °C 1022.2 hPa SSW 4.8 km/h 12.9 km/h 68% 0 mm
23:20 4.4 °C -0.9 °C 1022.6 hPa SSW 4.8 km/h 11.3 km/h 68% 0 mm
23:24 4.4 °C -0.9 °C 1022.6 hPa SW 1.6 km/h 11.3 km/h 68% 0 mm
23:29 4.4 °C -0.9 °C 1022.6 hPa SSW 3.2 km/h 9.7 km/h 68% 0 mm
23:34 4.4 °C -0.9 °C 1022.6 hPa SSW 4.8 km/h 11.3 km/h 68% 0 mm
23:39 4.4 °C -1 °C 1022.2 hPa South 4.8 km/h 11.3 km/h 68% 0 mm
23:44 4.4 °C -1 °C 1022.2 hPa SW 4.8 km/h 12.9 km/h 68% 0 mm
23:49 4.4 °C -1 °C 1022.2 hPa SSW 1.6 km/h 11.3 km/h 68% 0 mm
23:54 4.4 °C -1 °C 1022.2 hPa SSW 4.8 km/h 11.3 km/h 68% 0 mm
23:59 4.3 °C -1.1 °C 1022.2 hPa SSW 3.2 km/h 6.4 km/h 68% 0 mm
Buffalo, New York, USA
Compliments of Weather Underground - 2.5 mb